sensor_id;sensor_type;location;lat;lon;timestamp;P1;durP1;ratioP1;P2;durP2;ratioP2
49416;SDS011;35290;39.550;8.786;2023-11-19T00:00:52;19.83;;;6.60;;
49416;SDS011;35290;39.550;8.786;2023-11-19T00:03:18;19.90;;;7.07;;
49416;SDS011;35290;39.550;8.786;2023-11-19T00:05:43;21.42;;;6.15;;
49416;SDS011;35290;39.550;8.786;2023-11-19T00:08:13;16.95;;;5.95;;
49416;SDS011;35290;39.550;8.786;2023-11-19T00:10:39;15.55;;;5.25;;
49416;SDS011;35290;39.550;8.786;2023-11-19T00:13:04;16.70;;;5.90;;
49416;SDS011;35290;39.550;8.786;2023-11-19T00:15:30;18.58;;;5.43;;
49416;SDS011;35290;39.550;8.786;2023-11-19T00:17:56;16.27;;;5.35;;
49416;SDS011;35290;39.550;8.786;2023-11-19T00:20:22;16.02;;;5.53;;
49416;SDS011;35290;39.550;8.786;2023-11-19T00:22:47;13.55;;;5.05;;
49416;SDS011;35290;39.550;8.786;2023-11-19T00:25:19;20.38;;;4.57;;
49416;SDS011;35290;39.550;8.786;2023-11-19T00:27:46;14.38;;;4.97;;
49416;SDS011;35290;39.550;8.786;2023-11-19T00:30:12;13.25;;;4.15;;
49416;SDS011;35290;39.550;8.786;2023-11-19T00:32:39;15.23;;;3.90;;
49416;SDS011;35290;39.550;8.786;2023-11-19T00:35:05;16.30;;;5.25;;
49416;SDS011;35290;39.550;8.786;2023-11-19T00:37:32;22.23;;;6.35;;
49416;SDS011;35290;39.550;8.786;2023-11-19T00:39:57;16.88;;;5.75;;
49416;SDS011;35290;39.550;8.786;2023-11-19T00:42:23;16.13;;;4.72;;
49416;SDS011;35290;39.550;8.786;2023-11-19T00:44:52;13.82;;;4.25;;
49416;SDS011;35290;39.550;8.786;2023-11-19T00:47:17;11.38;;;3.28;;
49416;SDS011;35290;39.550;8.786;2023-11-19T00:49:48;14.02;;;3.40;;
49416;SDS011;35290;39.550;8.786;2023-11-19T00:52:15;13.80;;;3.17;;
49416;SDS011;35290;39.550;8.786;2023-11-19T00:54:41;11.95;;;2.50;;
49416;SDS011;35290;39.550;8.786;2023-11-19T00:57:06;8.30;;;2.22;;
49416;SDS011;35290;39.550;8.786;2023-11-19T00:59:32;10.60;;;2.30;;
49416;SDS011;35290;39.550;8.786;2023-11-19T01:01:57;9.73;;;2.22;;
49416;SDS011;35290;39.550;8.786;2023-11-19T01:04:28;13.60;;;2.30;;
49416;SDS011;35290;39.550;8.786;2023-11-19T01:06:53;11.75;;;3.03;;
49416;SDS011;35290;39.550;8.786;2023-11-19T01:09:19;12.05;;;3.13;;
49416;SDS011;35290;39.550;8.786;2023-11-19T01:11:45;12.57;;;4.50;;
49416;SDS011;35290;39.550;8.786;2023-11-19T01:14:10;19.17;;;9.52;;
49416;SDS011;35290;39.550;8.786;2023-11-19T01:16:36;37.03;;;21.42;;
49416;SDS011;35290;39.550;8.786;2023-11-19T01:19:01;30.73;;;18.60;;
49416;SDS011;35290;39.550;8.786;2023-11-19T01:21:30;34.15;;;19.60;;
49416;SDS011;35290;39.550;8.786;2023-11-19T01:23:56;32.35;;;15.93;;
49416;SDS011;35290;39.550;8.786;2023-11-19T01:26:23;24.75;;;11.40;;
49416;SDS011;35290;39.550;8.786;2023-11-19T01:28:48;19.15;;;9.90;;
49416;SDS011;35290;39.550;8.786;2023-11-19T01:31:17;22.50;;;9.38;;
49416;SDS011;35290;39.550;8.786;2023-11-19T01:33:42;20.80;;;7.15;;
49416;SDS011;35290;39.550;8.786;2023-11-19T01:36:08;16.75;;;5.28;;
49416;SDS011;35290;39.550;8.786;2023-11-19T01:38:34;14.52;;;4.72;;
49416;SDS011;35290;39.550;8.786;2023-11-19T01:41:00;13.60;;;4.25;;
49416;SDS011;35290;39.550;8.786;2023-11-19T01:43:34;18.30;;;5.18;;
49416;SDS011;35290;39.550;8.786;2023-11-19T01:46:01;11.02;;;3.08;;
49416;SDS011;35290;39.550;8.786;2023-11-19T01:48:30;13.93;;;3.47;;
49416;SDS011;35290;39.550;8.786;2023-11-19T01:50:57;11.77;;;3.55;;
49416;SDS011;35290;39.550;8.786;2023-11-19T01:53:23;15.38;;;3.70;;
49416;SDS011;35290;39.550;8.786;2023-11-19T01:55:49;18.35;;;3.50;;
49416;SDS011;35290;39.550;8.786;2023-11-19T01:58:15;11.85;;;3.13;;
49416;SDS011;35290;39.550;8.786;2023-11-19T02:00:41;16.50;;;3.60;;
49416;SDS011;35290;39.550;8.786;2023-11-19T02:03:08;18.92;;;3.70;;
49416;SDS011;35290;39.550;8.786;2023-11-19T02:05:33;16.45;;;3.10;;
49416;SDS011;35290;39.550;8.786;2023-11-19T02:07:59;16.08;;;3.15;;
49416;SDS011;35290;39.550;8.786;2023-11-19T02:10:24;13.55;;;3.08;;
49416;SDS011;35290;39.550;8.786;2023-11-19T02:12:50;10.63;;;2.80;;
49416;SDS011;35290;39.550;8.786;2023-11-19T02:15:16;13.70;;;3.30;;
49416;SDS011;35290;39.550;8.786;2023-11-19T02:17:44;14.10;;;3.25;;
49416;SDS011;35290;39.550;8.786;2023-11-19T02:20:10;15.27;;;3.30;;
49416;SDS011;35290;39.550;8.786;2023-11-19T02:22:37;15.18;;;3.42;;
49416;SDS011;35290;39.550;8.786;2023-11-19T02:25:11;13.02;;;3.05;;
49416;SDS011;35290;39.550;8.786;2023-11-19T02:30:11;11.38;;;3.25;;
49416;SDS011;35290;39.550;8.786;2023-11-19T02:32:40;14.10;;;4.10;;
49416;SDS011;35290;39.550;8.786;2023-11-19T02:35:08;11.20;;;3.58;;
49416;SDS011;35290;39.550;8.786;2023-11-19T02:37:34;13.90;;;3.15;;
49416;SDS011;35290;39.550;8.786;2023-11-19T02:40:00;12.00;;;3.05;;
49416;SDS011;35290;39.550;8.786;2023-11-19T02:42:28;9.85;;;2.85;;
49416;SDS011;35290;39.550;8.786;2023-11-19T02:44:53;17.30;;;4.25;;
49416;SDS011;35290;39.550;8.786;2023-11-19T02:47:19;14.27;;;4.65;;
49416;SDS011;35290;39.550;8.786;2023-11-19T02:49:46;17.80;;;6.43;;
49416;SDS011;35290;39.550;8.786;2023-11-19T02:52:13;18.27;;;6.53;;
49416;SDS011;35290;39.550;8.786;2023-11-19T02:54:39;14.10;;;4.20;;
49416;SDS011;35290;39.550;8.786;2023-11-19T02:57:06;21.65;;;5.15;;
49416;SDS011;35290;39.550;8.786;2023-11-19T02:59:34;18.27;;;3.83;;
49416;SDS011;35290;39.550;8.786;2023-11-19T03:02:07;15.02;;;4.07;;
49416;SDS011;35290;39.550;8.786;2023-11-19T03:07:01;16.17;;;3.35;;
49416;SDS011;35290;39.550;8.786;2023-11-19T03:09:27;15.02;;;4.75;;
49416;SDS011;35290;39.550;8.786;2023-11-19T03:11:54;13.15;;;3.90;;
49416;SDS011;35290;39.550;8.786;2023-11-19T03:14:19;15.38;;;4.22;;
49416;SDS011;35290;39.550;8.786;2023-11-19T03:16:45;14.50;;;3.75;;
49416;SDS011;35290;39.550;8.786;2023-11-19T03:19:13;17.88;;;4.85;;
49416;SDS011;35290;39.550;8.786;2023-11-19T03:21:39;15.73;;;3.88;;
49416;SDS011;35290;39.550;8.786;2023-11-19T03:24:04;19.50;;;3.65;;
49416;SDS011;35290;39.550;8.786;2023-11-19T03:26:30;13.05;;;3.40;;
49416;SDS011;35290;39.550;8.786;2023-11-19T03:28:56;13.60;;;3.83;;
49416;SDS011;35290;39.550;8.786;2023-11-19T03:31:22;12.65;;;3.60;;
49416;SDS011;35290;39.550;8.786;2023-11-19T03:33:48;12.95;;;3.65;;
49416;SDS011;35290;39.550;8.786;2023-11-19T03:36:13;16.00;;;3.72;;
49416;SDS011;35290;39.550;8.786;2023-11-19T03:38:40;12.40;;;3.58;;
49416;SDS011;35290;39.550;8.786;2023-11-19T03:41:14;12.00;;;3.28;;
49416;SDS011;35290;39.550;8.786;2023-11-19T03:46:15;14.27;;;3.13;;
49416;SDS011;35290;39.550;8.786;2023-11-19T03:48:45;17.95;;;3.88;;
49416;SDS011;35290;39.550;8.786;2023-11-19T03:51:14;9.40;;;3.03;;
49416;SDS011;35290;39.550;8.786;2023-11-19T03:53:43;14.82;;;4.10;;
49416;SDS011;35290;39.550;8.786;2023-11-19T03:56:09;11.02;;;3.15;;
49416;SDS011;35290;39.550;8.786;2023-11-19T03:58:36;14.65;;;3.53;;
49416;SDS011;35290;39.550;8.786;2023-11-19T04:01:03;13.75;;;4.65;;
49416;SDS011;35290;39.550;8.786;2023-11-19T04:03:29;21.13;;;9.70;;
49416;SDS011;35290;39.550;8.786;2023-11-19T04:05:54;25.85;;;11.52;;
49416;SDS011;35290;39.550;8.786;2023-11-19T04:08:20;22.65;;;10.40;;
49416;SDS011;35290;39.550;8.786;2023-11-19T04:10:46;33.47;;;15.30;;
49416;SDS011;35290;39.550;8.786;2023-11-19T04:13:12;35.33;;;17.55;;
49416;SDS011;35290;39.550;8.786;2023-11-19T04:15:37;30.25;;;16.27;;
49416;SDS011;35290;39.550;8.786;2023-11-19T04:18:03;33.70;;;15.45;;
49416;SDS011;35290;39.550;8.786;2023-11-19T04:20:28;30.80;;;14.65;;
49416;SDS011;35290;39.550;8.786;2023-11-19T04:22:54;34.53;;;18.23;;
49416;SDS011;35290;39.550;8.786;2023-11-19T04:25:19;37.88;;;18.77;;
49416;SDS011;35290;39.550;8.786;2023-11-19T04:27:46;33.78;;;16.05;;
49416;SDS011;35290;39.550;8.786;2023-11-19T04:30:12;34.50;;;16.38;;
49416;SDS011;35290;39.550;8.786;2023-11-19T04:32:38;28.95;;;13.10;;
49416;SDS011;35290;39.550;8.786;2023-11-19T04:35:04;26.52;;;13.10;;
49416;SDS011;35290;39.550;8.786;2023-11-19T04:37:32;18.55;;;8.85;;
49416;SDS011;35290;39.550;8.786;2023-11-19T04:39:58;14.43;;;7.18;;
49416;SDS011;35290;39.550;8.786;2023-11-19T04:42:25;17.45;;;7.05;;
49416;SDS011;35290;39.550;8.786;2023-11-19T04:44:50;20.25;;;7.90;;
49416;SDS011;35290;39.550;8.786;2023-11-19T04:47:15;19.42;;;9.00;;
49416;SDS011;35290;39.550;8.786;2023-11-19T04:49:41;29.42;;;16.42;;
49416;SDS011;35290;39.550;8.786;2023-11-19T04:52:10;33.75;;;19.00;;
49416;SDS011;35290;39.550;8.786;2023-11-19T04:54:40;44.13;;;24.40;;
49416;SDS011;35290;39.550;8.786;2023-11-19T04:57:09;40.28;;;25.77;;
49416;SDS011;35290;39.550;8.786;2023-11-19T04:59:38;59.30;;;37.05;;
49416;SDS011;35290;39.550;8.786;2023-11-19T05:02:04;47.92;;;31.27;;
49416;SDS011;35290;39.550;8.786;2023-11-19T05:04:30;58.67;;;36.45;;
49416;SDS011;35290;39.550;8.786;2023-11-19T05:06:55;56.58;;;33.72;;
49416;SDS011;35290;39.550;8.786;2023-11-19T05:09:22;60.10;;;36.05;;
49416;SDS011;35290;39.550;8.786;2023-11-19T05:11:47;67.03;;;37.30;;
49416;SDS011;35290;39.550;8.786;2023-11-19T05:14:13;62.60;;;37.78;;
49416;SDS011;35290;39.550;8.786;2023-11-19T05:16:39;63.42;;;36.65;;
49416;SDS011;35290;39.550;8.786;2023-11-19T05:19:05;62.33;;;35.95;;
49416;SDS011;35290;39.550;8.786;2023-11-19T05:21:30;58.25;;;33.30;;
49416;SDS011;35290;39.550;8.786;2023-11-19T05:23:56;67.47;;;36.17;;
49416;SDS011;35290;39.550;8.786;2023-11-19T05:26:22;59.78;;;33.92;;
49416;SDS011;35290;39.550;8.786;2023-11-19T05:28:49;54.03;;;34.70;;
49416;SDS011;35290;39.550;8.786;2023-11-19T05:31:16;53.42;;;32.28;;
49416;SDS011;35290;39.550;8.786;2023-11-19T05:33:42;58.17;;;31.95;;
49416;SDS011;35290;39.550;8.786;2023-11-19T05:36:08;56.35;;;31.27;;
49416;SDS011;35290;39.550;8.786;2023-11-19T05:38:34;57.53;;;32.22;;
49416;SDS011;35290;39.550;8.786;2023-11-19T05:41:00;55.67;;;31.67;;
49416;SDS011;35290;39.550;8.786;2023-11-19T05:43:26;51.20;;;29.00;;
49416;SDS011;35290;39.550;8.786;2023-11-19T05:45:51;56.40;;;30.48;;
49416;SDS011;35290;39.550;8.786;2023-11-19T05:48:17;56.08;;;31.05;;
49416;SDS011;35290;39.550;8.786;2023-11-19T05:50:43;49.72;;;28.55;;
49416;SDS011;35290;39.550;8.786;2023-11-19T05:53:09;50.97;;;27.98;;
49416;SDS011;35290;39.550;8.786;2023-11-19T05:55:38;54.60;;;30.13;;
49416;SDS011;35290;39.550;8.786;2023-11-19T05:58:12;52.25;;;29.92;;
49416;SDS011;35290;39.550;8.786;2023-11-19T06:00:38;55.92;;;30.88;;
49416;SDS011;35290;39.550;8.786;2023-11-19T06:03:05;51.47;;;28.77;;
49416;SDS011;35290;39.550;8.786;2023-11-19T06:05:32;53.60;;;28.23;;
49416;SDS011;35290;39.550;8.786;2023-11-19T06:07:59;48.95;;;27.52;;
49416;SDS011;35290;39.550;8.786;2023-11-19T06:10:24;48.35;;;26.90;;
49416;SDS011;35290;39.550;8.786;2023-11-19T06:12:56;40.73;;;23.70;;
49416;SDS011;35290;39.550;8.786;2023-11-19T06:15:25;49.42;;;25.63;;
49416;SDS011;35290;39.550;8.786;2023-11-19T06:17:51;43.58;;;25.55;;
49416;SDS011;35290;39.550;8.786;2023-11-19T06:20:17;43.20;;;24.25;;
49416;SDS011;35290;39.550;8.786;2023-11-19T06:22:44;62.55;;;31.15;;
49416;SDS011;35290;39.550;8.786;2023-11-19T06:25:11;61.78;;;35.50;;
49416;SDS011;35290;39.550;8.786;2023-11-19T06:27:36;66.40;;;37.67;;
49416;SDS011;35290;39.550;8.786;2023-11-19T06:30:02;69.13;;;37.25;;
49416;SDS011;35290;39.550;8.786;2023-11-19T06:32:28;79.28;;;41.17;;
49416;SDS011;35290;39.550;8.786;2023-11-19T06:34:54;75.80;;;41.40;;
49416;SDS011;35290;39.550;8.786;2023-11-19T06:37:19;69.60;;;37.17;;
49416;SDS011;35290;39.550;8.786;2023-11-19T06:39:47;70.45;;;41.33;;
49416;SDS011;35290;39.550;8.786;2023-11-19T06:42:14;80.00;;;45.75;;
49416;SDS011;35290;39.550;8.786;2023-11-19T06:44:39;74.53;;;41.03;;
49416;SDS011;35290;39.550;8.786;2023-11-19T06:47:04;76.50;;;41.33;;
49416;SDS011;35290;39.550;8.786;2023-11-19T06:49:37;68.53;;;38.92;;
49416;SDS011;35290;39.550;8.786;2023-11-19T06:52:03;68.10;;;36.72;;
49416;SDS011;35290;39.550;8.786;2023-11-19T06:54:29;64.30;;;36.92;;
49416;SDS011;35290;39.550;8.786;2023-11-19T06:56:55;66.57;;;36.72;;
49416;SDS011;35290;39.550;8.786;2023-11-19T06:59:22;60.58;;;35.65;;
49416;SDS011;35290;39.550;8.786;2023-11-19T07:01:48;64.28;;;34.83;;
49416;SDS011;35290;39.550;8.786;2023-11-19T07:04:13;66.10;;;37.00;;
49416;SDS011;35290;39.550;8.786;2023-11-19T07:06:39;59.03;;;34.10;;
49416;SDS011;35290;39.550;8.786;2023-11-19T07:09:06;68.90;;;37.67;;
49416;SDS011;35290;39.550;8.786;2023-11-19T07:11:38;65.05;;;36.00;;
49416;SDS011;35290;39.550;8.786;2023-11-19T07:14:04;64.05;;;35.50;;
49416;SDS011;35290;39.550;8.786;2023-11-19T07:16:31;64.32;;;33.85;;
49416;SDS011;35290;39.550;8.786;2023-11-19T07:19:01;60.70;;;35.28;;
49416;SDS011;35290;39.550;8.786;2023-11-19T07:21:26;60.78;;;33.47;;
49416;SDS011;35290;39.550;8.786;2023-11-19T07:23:55;66.63;;;35.38;;
49416;SDS011;35290;39.550;8.786;2023-11-19T07:26:21;63.33;;;35.35;;
49416;SDS011;35290;39.550;8.786;2023-11-19T07:28:48;62.40;;;33.92;;
49416;SDS011;35290;39.550;8.786;2023-11-19T07:31:16;64.38;;;38.25;;
49416;SDS011;35290;39.550;8.786;2023-11-19T07:33:44;67.38;;;37.40;;
49416;SDS011;35290;39.550;8.786;2023-11-19T07:36:11;76.78;;;40.63;;
49416;SDS011;35290;39.550;8.786;2023-11-19T07:38:38;72.88;;;40.60;;
49416;SDS011;35290;39.550;8.786;2023-11-19T07:41:04;76.28;;;42.60;;
49416;SDS011;35290;39.550;8.786;2023-11-19T07:43:30;77.75;;;42.67;;
49416;SDS011;35290;39.550;8.786;2023-11-19T07:45:56;85.72;;;43.05;;
49416;SDS011;35290;39.550;8.786;2023-11-19T07:48:25;81.03;;;41.25;;
49416;SDS011;35290;39.550;8.786;2023-11-19T07:50:51;79.40;;;40.20;;
49416;SDS011;35290;39.550;8.786;2023-11-19T07:53:17;60.28;;;31.80;;
49416;SDS011;35290;39.550;8.786;2023-11-19T07:55:43;41.28;;;19.98;;
49416;SDS011;35290;39.550;8.786;2023-11-19T07:58:09;33.72;;;16.17;;
49416;SDS011;35290;39.550;8.786;2023-11-19T08:00:35;31.58;;;11.50;;
49416;SDS011;35290;39.550;8.786;2023-11-19T08:03:01;25.58;;;10.65;;
49416;SDS011;35290;39.550;8.786;2023-11-19T08:05:26;23.67;;;9.27;;
49416;SDS011;35290;39.550;8.786;2023-11-19T08:07:52;22.15;;;7.70;;
49416;SDS011;35290;39.550;8.786;2023-11-19T08:10:18;20.65;;;6.63;;
49416;SDS011;35290;39.550;8.786;2023-11-19T08:12:44;19.52;;;6.47;;
49416;SDS011;35290;39.550;8.786;2023-11-19T08:15:10;19.50;;;6.32;;
49416;SDS011;35290;39.550;8.786;2023-11-19T08:17:35;14.27;;;5.50;;
49416;SDS011;35290;39.550;8.786;2023-11-19T08:20:01;18.42;;;5.63;;
49416;SDS011;35290;39.550;8.786;2023-11-19T08:22:28;14.10;;;5.45;;
49416;SDS011;35290;39.550;8.786;2023-11-19T08:24:53;19.58;;;5.53;;
49416;SDS011;35290;39.550;8.786;2023-11-19T08:27:18;18.30;;;6.30;;
49416;SDS011;35290;39.550;8.786;2023-11-19T08:29:54;25.83;;;5.63;;
49416;SDS011;35290;39.550;8.786;2023-11-19T08:32:22;14.32;;;5.20;;
49416;SDS011;35290;39.550;8.786;2023-11-19T08:34:51;16.25;;;5.60;;
49416;SDS011;35290;39.550;8.786;2023-11-19T08:37:16;18.10;;;6.20;;
49416;SDS011;35290;39.550;8.786;2023-11-19T08:39:45;22.08;;;6.60;;
49416;SDS011;35290;39.550;8.786;2023-11-19T08:42:14;22.00;;;6.30;;
49416;SDS011;35290;39.550;8.786;2023-11-19T08:44:41;18.35;;;6.05;;
49416;SDS011;35290;39.550;8.786;2023-11-19T08:47:08;15.30;;;7.32;;
49416;SDS011;35290;39.550;8.786;2023-11-19T08:49:38;15.15;;;6.43;;
49416;SDS011;35290;39.550;8.786;2023-11-19T08:52:04;23.20;;;10.50;;
49416;SDS011;35290;39.550;8.786;2023-11-19T08:54:32;16.38;;;7.13;;
49416;SDS011;35290;39.550;8.786;2023-11-19T08:56:58;20.48;;;8.60;;
49416;SDS011;35290;39.550;8.786;2023-11-19T08:59:24;19.42;;;8.52;;
49416;SDS011;35290;39.550;8.786;2023-11-19T09:01:49;21.35;;;8.95;;
49416;SDS011;35290;39.550;8.786;2023-11-19T09:04:15;21.95;;;9.07;;
49416;SDS011;35290;39.550;8.786;2023-11-19T09:06:41;20.83;;;8.88;;
49416;SDS011;35290;39.550;8.786;2023-11-19T09:09:09;20.10;;;9.82;;
49416;SDS011;35290;39.550;8.786;2023-11-19T09:11:34;18.60;;;8.25;;
49416;SDS011;35290;39.550;8.786;2023-11-19T09:14:00;14.23;;;6.38;;
49416;SDS011;35290;39.550;8.786;2023-11-19T09:16:25;14.13;;;5.60;;
49416;SDS011;35290;39.550;8.786;2023-11-19T09:18:51;16.25;;;4.85;;
49416;SDS011;35290;39.550;8.786;2023-11-19T09:21:17;13.57;;;4.70;;
49416;SDS011;35290;39.550;8.786;2023-11-19T09:23:43;13.35;;;4.78;;
49416;SDS011;35290;39.550;8.786;2023-11-19T09:26:08;15.60;;;4.97;;
49416;SDS011;35290;39.550;8.786;2023-11-19T09:28:38;13.20;;;4.88;;
49416;SDS011;35290;39.550;8.786;2023-11-19T09:31:12;25.63;;;9.88;;
49416;SDS011;35290;39.550;8.786;2023-11-19T09:33:38;31.02;;;15.18;;
49416;SDS011;35290;39.550;8.786;2023-11-19T09:36:04;25.60;;;9.38;;
49416;SDS011;35290;39.550;8.786;2023-11-19T09:38:30;28.60;;;11.10;;
49416;SDS011;35290;39.550;8.786;2023-11-19T09:40:55;32.50;;;12.32;;
49416;SDS011;35290;39.550;8.786;2023-11-19T09:43:22;30.20;;;12.85;;
49416;SDS011;35290;39.550;8.786;2023-11-19T09:45:48;25.58;;;11.70;;
49416;SDS011;35290;39.550;8.786;2023-11-19T09:48:19;21.23;;;7.93;;
49416;SDS011;35290;39.550;8.786;2023-11-19T09:50:48;18.58;;;6.40;;
49416;SDS011;35290;39.550;8.786;2023-11-19T09:53:14;18.20;;;6.30;;
49416;SDS011;35290;39.550;8.786;2023-11-19T09:55:40;18.25;;;6.43;;
49416;SDS011;35290;39.550;8.786;2023-11-19T09:58:07;19.77;;;6.93;;
49416;SDS011;35290;39.550;8.786;2023-11-19T10:00:33;19.02;;;6.45;;
49416;SDS011;35290;39.550;8.786;2023-11-19T10:02:59;16.35;;;5.45;;
49416;SDS011;35290;39.550;8.786;2023-11-19T10:05:25;14.25;;;4.70;;
49416;SDS011;35290;39.550;8.786;2023-11-19T10:07:52;14.48;;;4.40;;
49416;SDS011;35290;39.550;8.786;2023-11-19T10:10:19;12.85;;;4.68;;
49416;SDS011;35290;39.550;8.786;2023-11-19T10:12:45;15.68;;;3.97;;
49416;SDS011;35290;39.550;8.786;2023-11-19T10:15:17;16.58;;;4.93;;
49416;SDS011;35290;39.550;8.786;2023-11-19T10:17:47;18.45;;;6.15;;
49416;SDS011;35290;39.550;8.786;2023-11-19T10:20:13;19.70;;;5.20;;
49416;SDS011;35290;39.550;8.786;2023-11-19T10:22:39;15.38;;;4.70;;
49416;SDS011;35290;39.550;8.786;2023-11-19T10:25:21;12.82;;;4.60;;
49416;SDS011;35290;39.550;8.786;2023-11-19T10:27:49;13.60;;;4.43;;
49416;SDS011;35290;39.550;8.786;2023-11-19T10:30:22;15.48;;;4.72;;
49416;SDS011;35290;39.550;8.786;2023-11-19T10:33:03;16.25;;;6.28;;
49416;SDS011;35290;39.550;8.786;2023-11-19T10:35:33;20.55;;;5.25;;
49416;SDS011;35290;39.550;8.786;2023-11-19T10:38:23;16.80;;;6.80;;
49416;SDS011;35290;39.550;8.786;2023-11-19T10:40:50;26.70;;;12.00;;
49416;SDS011;35290;39.550;8.786;2023-11-19T10:43:16;14.57;;;6.65;;
49416;SDS011;35290;39.550;8.786;2023-11-19T10:45:43;12.25;;;5.35;;
49416;SDS011;35290;39.550;8.786;2023-11-19T10:48:12;12.15;;;4.43;;
49416;SDS011;35290;39.550;8.786;2023-11-19T10:50:39;10.23;;;3.17;;
49416;SDS011;35290;39.550;8.786;2023-11-19T10:53:08;9.13;;;3.38;;
49416;SDS011;35290;39.550;8.786;2023-11-19T10:55:39;11.68;;;3.97;;
49416;SDS011;35290;39.550;8.786;2023-11-19T10:58:07;12.68;;;5.07;;
49416;SDS011;35290;39.550;8.786;2023-11-19T11:03:15;15.75;;;5.10;;
49416;SDS011;35290;39.550;8.786;2023-11-19T11:05:41;11.55;;;5.10;;
49416;SDS011;35290;39.550;8.786;2023-11-19T11:08:09;14.63;;;4.68;;
49416;SDS011;35290;39.550;8.786;2023-11-19T11:10:39;10.73;;;4.57;;
49416;SDS011;35290;39.550;8.786;2023-11-19T11:13:09;21.75;;;7.32;;
49416;SDS011;35290;39.550;8.786;2023-11-19T11:15:35;20.35;;;7.95;;
49416;SDS011;35290;39.550;8.786;2023-11-19T11:18:03;18.77;;;8.65;;
49416;SDS011;35290;39.550;8.786;2023-11-19T11:20:32;24.13;;;9.75;;
49416;SDS011;35290;39.550;8.786;2023-11-19T11:25:43;32.65;;;11.70;;
49416;SDS011;35290;39.550;8.786;2023-11-19T11:31:20;8.73;;;3.10;;
49416;SDS011;35290;39.550;8.786;2023-11-19T11:36:23;10.57;;;3.80;;
49416;SDS011;35290;39.550;8.786;2023-11-19T11:38:52;7.72;;;2.75;;
49416;SDS011;35290;39.550;8.786;2023-11-19T11:41:22;9.50;;;2.78;;
49416;SDS011;35290;39.550;8.786;2023-11-19T11:43:51;12.23;;;3.17;;
49416;SDS011;35290;39.550;8.786;2023-11-19T11:49:00;84.15;;;53.03;;
49416;SDS011;35290;39.550;8.786;2023-11-19T11:54:11;119.55;;;71.05;;
49416;SDS011;35290;39.550;8.786;2023-11-19T11:57:08;60.47;;;34.78;;
49416;SDS011;35290;39.550;8.786;2023-11-19T11:59:42;81.78;;;49.78;;
49416;SDS011;35290;39.550;8.786;2023-11-19T12:02:09;43.47;;;22.58;;
49416;SDS011;35290;39.550;8.786;2023-11-19T12:04:37;27.40;;;13.80;;
49416;SDS011;35290;39.550;8.786;2023-11-19T12:07:03;24.10;;;11.55;;
49416;SDS011;35290;39.550;8.786;2023-11-19T12:09:41;17.80;;;5.15;;
49416;SDS011;35290;39.550;8.786;2023-11-19T12:12:28;17.08;;;5.88;;
49416;SDS011;35290;39.550;8.786;2023-11-19T12:15:09;22.92;;;8.80;;
49416;SDS011;35290;39.550;8.786;2023-11-19T12:17:36;13.40;;;5.30;;
49416;SDS011;35290;39.550;8.786;2023-11-19T12:20:06;18.75;;;5.88;;
49416;SDS011;35290;39.550;8.786;2023-11-19T12:22:39;13.13;;;5.05;;
49416;SDS011;35290;39.550;8.786;2023-11-19T12:25:08;17.67;;;7.00;;
49416;SDS011;35290;39.550;8.786;2023-11-19T12:27:43;9.55;;;3.30;;
49416;SDS011;35290;39.550;8.786;2023-11-19T12:30:10;31.35;;;12.27;;
49416;SDS011;35290;39.550;8.786;2023-11-19T12:32:41;31.02;;;13.70;;
49416;SDS011;35290;39.550;8.786;2023-11-19T12:35:08;10.40;;;3.75;;
49416;SDS011;35290;39.550;8.786;2023-11-19T12:37:40;14.60;;;4.60;;
49416;SDS011;35290;39.550;8.786;2023-11-19T12:40:17;11.90;;;4.93;;
49416;SDS011;35290;39.550;8.786;2023-11-19T12:42:45;7.38;;;2.08;;
49416;SDS011;35290;39.550;8.786;2023-11-19T12:45:12;10.45;;;2.53;;
49416;SDS011;35290;39.550;8.786;2023-11-19T12:47:39;9.93;;;2.42;;
49416;SDS011;35290;39.550;8.786;2023-11-19T12:50:06;9.77;;;3.00;;
49416;SDS011;35290;39.550;8.786;2023-11-19T12:52:36;12.02;;;2.92;;
49416;SDS011;35290;39.550;8.786;2023-11-19T12:55:03;10.90;;;2.75;;
49416;SDS011;35290;39.550;8.786;2023-11-19T12:57:50;11.40;;;2.67;;
49416;SDS011;35290;39.550;8.786;2023-11-19T13:00:20;11.70;;;4.00;;
49416;SDS011;35290;39.550;8.786;2023-11-19T13:02:50;13.18;;;4.68;;
49416;SDS011;35290;39.550;8.786;2023-11-19T13:05:24;17.63;;;3.50;;
49416;SDS011;35290;39.550;8.786;2023-11-19T13:08:05;9.98;;;3.13;;
49416;SDS011;35290;39.550;8.786;2023-11-19T13:10:34;13.50;;;3.83;;
49416;SDS011;35290;39.550;8.786;2023-11-19T13:13:14;10.13;;;2.40;;
49416;SDS011;35290;39.550;8.786;2023-11-19T13:15:40;8.80;;;2.20;;
49416;SDS011;35290;39.550;8.786;2023-11-19T13:18:06;8.32;;;1.83;;
49416;SDS011;35290;39.550;8.786;2023-11-19T13:20:32;15.27;;;5.85;;
49416;SDS011;35290;39.550;8.786;2023-11-19T13:23:02;19.25;;;7.45;;
49416;SDS011;35290;39.550;8.786;2023-11-19T13:25:29;16.40;;;5.90;;
49416;SDS011;35290;39.550;8.786;2023-11-19T13:27:56;19.63;;;6.82;;
49416;SDS011;35290;39.550;8.786;2023-11-19T13:30:22;22.52;;;6.45;;
49416;SDS011;35290;39.550;8.786;2023-11-19T13:32:49;15.05;;;5.65;;
49416;SDS011;35290;39.550;8.786;2023-11-19T13:35:20;19.73;;;6.43;;
49416;SDS011;35290;39.550;8.786;2023-11-19T13:37:45;13.35;;;4.38;;
49416;SDS011;35290;39.550;8.786;2023-11-19T13:40:12;9.85;;;2.88;;
49416;SDS011;35290;39.550;8.786;2023-11-19T13:42:41;10.32;;;2.90;;
49416;SDS011;35290;39.550;8.786;2023-11-19T13:45:08;11.18;;;3.15;;
49416;SDS011;35290;39.550;8.786;2023-11-19T13:47:39;9.65;;;2.00;;
49416;SDS011;35290;39.550;8.786;2023-11-19T13:50:07;11.60;;;2.13;;
49416;SDS011;35290;39.550;8.786;2023-11-19T13:52:34;9.18;;;1.98;;
49416;SDS011;35290;39.550;8.786;2023-11-19T13:55:02;10.35;;;2.30;;
49416;SDS011;35290;39.550;8.786;2023-11-19T13:57:29;8.85;;;1.92;;
49416;SDS011;35290;39.550;8.786;2023-11-19T13:59:55;10.85;;;1.92;;
49416;SDS011;35290;39.550;8.786;2023-11-19T14:02:22;9.82;;;2.22;;
49416;SDS011;35290;39.550;8.786;2023-11-19T14:04:48;13.07;;;2.80;;
49416;SDS011;35290;39.550;8.786;2023-11-19T14:07:14;12.15;;;4.05;;
49416;SDS011;35290;39.550;8.786;2023-11-19T14:09:43;7.32;;;2.13;;
49416;SDS011;35290;39.550;8.786;2023-11-19T14:12:10;11.30;;;2.53;;
49416;SDS011;35290;39.550;8.786;2023-11-19T14:14:38;9.93;;;2.20;;
49416;SDS011;35290;39.550;8.786;2023-11-19T14:17:04;8.50;;;1.73;;
49416;SDS011;35290;39.550;8.786;2023-11-19T14:19:31;12.30;;;2.10;;
49416;SDS011;35290;39.550;8.786;2023-11-19T14:21:58;8.52;;;1.58;;
49416;SDS011;35290;39.550;8.786;2023-11-19T14:24:25;8.93;;;1.42;;
49416;SDS011;35290;39.550;8.786;2023-11-19T14:26:51;6.53;;;1.40;;
49416;SDS011;35290;39.550;8.786;2023-11-19T14:29:18;5.95;;;1.60;;
49416;SDS011;35290;39.550;8.786;2023-11-19T14:31:43;10.13;;;1.95;;
49416;SDS011;35290;39.550;8.786;2023-11-19T14:34:09;5.43;;;1.77;;
49416;SDS011;35290;39.550;8.786;2023-11-19T14:36:35;5.45;;;1.88;;
49416;SDS011;35290;39.550;8.786;2023-11-19T14:39:01;6.25;;;1.80;;
49416;SDS011;35290;39.550;8.786;2023-11-19T14:41:29;10.15;;;2.15;;
49416;SDS011;35290;39.550;8.786;2023-11-19T14:43:55;9.15;;;1.63;;
49416;SDS011;35290;39.550;8.786;2023-11-19T14:46:21;7.22;;;2.03;;
49416;SDS011;35290;39.550;8.786;2023-11-19T14:48:49;10.35;;;1.60;;
49416;SDS011;35290;39.550;8.786;2023-11-19T14:51:14;9.77;;;2.33;;
49416;SDS011;35290;39.550;8.786;2023-11-19T14:53:40;7.10;;;1.90;;
49416;SDS011;35290;39.550;8.786;2023-11-19T14:56:09;6.57;;;2.10;;